sensor_id;sensor_type;location;lat;lon;timestamp;temperature;humidity
78904;DHT22;68291;49.602;8.722;2023-07-31T00:04:43;20.40;99.90
78904;DHT22;68291;49.602;8.722;2023-07-31T00:07:23;20.50;99.90
78904;DHT22;68291;49.602;8.722;2023-07-31T00:10:08;20.50;99.90
78904;DHT22;68291;49.602;8.722;2023-07-31T00:12:53;20.60;99.90
78904;DHT22;68291;49.602;8.722;2023-07-31T00:15:32;20.60;99.90
78904;DHT22;68291;49.602;8.722;2023-07-31T00:18:24;20.60;99.90
78904;DHT22;68291;49.602;8.722;2023-07-31T00:20:55;20.70;99.90
78904;DHT22;68291;49.602;8.722;2023-07-31T00:23:48;20.70;99.90
78904;DHT22;68291;49.602;8.722;2023-07-31T00:26:27;20.70;99.90
78904;DHT22;68291;49.602;8.722;2023-07-31T00:29:23;20.70;99.90
78904;DHT22;68291;49.602;8.722;2023-07-31T00:32:15;20.70;99.90
78904;DHT22;68291;49.602;8.722;2023-07-31T00:35:08;20.80;99.90
78904;DHT22;68291;49.602;8.722;2023-07-31T00:37:43;20.80;99.90
78904;DHT22;68291;49.602;8.722;2023-07-31T00:40:21;20.80;99.90
78904;DHT22;68291;49.602;8.722;2023-07-31T00:42:52;20.90;99.90
78904;DHT22;68291;49.602;8.722;2023-07-31T00:45:38;20.90;99.90
78904;DHT22;68291;49.602;8.722;2023-07-31T00:48:14;21.00;99.90
78904;DHT22;68291;49.602;8.722;2023-07-31T00:50:54;21.00;99.90
78904;DHT22;68291;49.602;8.722;2023-07-31T00:53:38;21.00;99.90
78904;DHT22;68291;49.602;8.722;2023-07-31T00:56:13;21.00;99.90
78904;DHT22;68291;49.602;8.722;2023-07-31T00:58:49;21.10;99.90
78904;DHT22;68291;49.602;8.722;2023-07-31T01:01:46;21.10;99.90
78904;DHT22;68291;49.602;8.722;2023-07-31T01:04:42;21.10;99.90
78904;DHT22;68291;49.602;8.722;2023-07-31T01:07:40;21.10;99.90
78904;DHT22;68291;49.602;8.722;2023-07-31T01:10:35;21.20;99.90
78904;DHT22;68291;49.602;8.722;2023-07-31T01:13:31;21.20;99.90
78904;DHT22;68291;49.602;8.722;2023-07-31T01:16:08;21.20;99.90
78904;DHT22;68291;49.602;8.722;2023-07-31T01:18:54;21.20;99.90
78904;DHT22;68291;49.602;8.722;2023-07-31T01:22:02;21.20;99.90
78904;DHT22;68291;49.602;8.722;2023-07-31T01:25:12;21.20;99.90
78904;DHT22;68291;49.602;8.722;2023-07-31T01:28:03;21.20;99.90
78904;DHT22;68291;49.602;8.722;2023-07-31T01:30:55;21.20;99.90
78904;DHT22;68291;49.602;8.722;2023-07-31T01:33:35;21.20;99.90
78904;DHT22;68291;49.602;8.722;2023-07-31T01:36:09;21.20;99.90
78904;DHT22;68291;49.602;8.722;2023-07-31T01:38:44;21.20;99.90
78904;DHT22;68291;49.602;8.722;2023-07-31T01:41:17;21.20;99.90
78904;DHT22;68291;49.602;8.722;2023-07-31T01:44:15;21.20;99.90
78904;DHT22;68291;49.602;8.722;2023-07-31T01:47:09;21.20;99.90
78904;DHT22;68291;49.602;8.722;2023-07-31T01:50:06;21.20;99.90
78904;DHT22;68291;49.602;8.722;2023-07-31T01:52:45;21.20;99.90
78904;DHT22;68291;49.602;8.722;2023-07-31T01:55:36;21.20;99.90
78904;DHT22;68291;49.602;8.722;2023-07-31T01:58:41;21.10;99.90
78904;DHT22;68291;49.602;8.722;2023-07-31T02:01:32;21.10;99.90
78904;DHT22;68291;49.602;8.722;2023-07-31T02:04:03;21.10;99.90
78904;DHT22;68291;49.602;8.722;2023-07-31T02:06:49;21.10;99.90
78904;DHT22;68291;49.602;8.722;2023-07-31T02:09:40;21.10;99.90
78904;DHT22;68291;49.602;8.722;2023-07-31T02:12:23;21.10;99.90
78904;DHT22;68291;49.602;8.722;2023-07-31T02:15:08;21.10;99.90
78904;DHT22;68291;49.602;8.722;2023-07-31T02:18:29;21.10;99.90
78904;DHT22;68291;49.602;8.722;2023-07-31T02:21:07;21.10;99.90
78904;DHT22;68291;49.602;8.722;2023-07-31T02:23:50;21.00;99.90
78904;DHT22;68291;49.602;8.722;2023-07-31T02:26:31;21.00;99.90
78904;DHT22;68291;49.602;8.722;2023-07-31T02:29:09;21.00;99.90
78904;DHT22;68291;49.602;8.722;2023-07-31T02:31:41;21.00;99.90
78904;DHT22;68291;49.602;8.722;2023-07-31T02:34:18;21.00;99.90
78904;DHT22;68291;49.602;8.722;2023-07-31T02:37:04;21.00;99.90
78904;DHT22;68291;49.602;8.722;2023-07-31T02:39:44;21.00;99.90
78904;DHT22;68291;49.602;8.722;2023-07-31T02:42:15;21.00;99.90
78904;DHT22;68291;49.602;8.722;2023-07-31T02:44:47;20.90;99.90
78904;DHT22;68291;49.602;8.722;2023-07-31T02:47:22;20.90;99.90
78904;DHT22;68291;49.602;8.722;2023-07-31T02:50:24;20.90;99.90
78904;DHT22;68291;49.602;8.722;2023-07-31T02:53:31;20.90;99.90
78904;DHT22;68291;49.602;8.722;2023-07-31T02:56:17;20.90;99.90
78904;DHT22;68291;49.602;8.722;2023-07-31T02:59:01;20.90;99.90
78904;DHT22;68291;49.602;8.722;2023-07-31T03:01:33;20.80;99.90
78904;DHT22;68291;49.602;8.722;2023-07-31T03:04:21;20.80;99.90
78904;DHT22;68291;49.602;8.722;2023-07-31T03:06:57;20.80;99.90
78904;DHT22;68291;49.602;8.722;2023-07-31T03:09:38;20.80;99.90
78904;DHT22;68291;49.602;8.722;2023-07-31T03:12:16;20.80;99.90
78904;DHT22;68291;49.602;8.722;2023-07-31T03:14:48;20.70;99.90
78904;DHT22;68291;49.602;8.722;2023-07-31T03:17:20;20.70;99.90
78904;DHT22;68291;49.602;8.722;2023-07-31T03:19:51;20.70;99.90
78904;DHT22;68291;49.602;8.722;2023-07-31T03:23:05;20.70;99.90
78904;DHT22;68291;49.602;8.722;2023-07-31T03:25:59;20.60;99.90
78904;DHT22;68291;49.602;8.722;2023-07-31T03:28:52;20.60;99.90
78904;DHT22;68291;49.602;8.722;2023-07-31T03:31:47;20.60;99.90
78904;DHT22;68291;49.602;8.722;2023-07-31T03:34:33;20.60;99.90
78904;DHT22;68291;49.602;8.722;2023-07-31T03:37:12;20.60;99.90
78904;DHT22;68291;49.602;8.722;2023-07-31T03:40:09;20.50;99.90
78904;DHT22;68291;49.602;8.722;2023-07-31T03:43:06;20.50;99.90
78904;DHT22;68291;49.602;8.722;2023-07-31T03:45:47;20.50;99.90
78904;DHT22;68291;49.602;8.722;2023-07-31T03:48:38;20.50;99.90
78904;DHT22;68291;49.602;8.722;2023-07-31T03:51:29;20.50;99.90
78904;DHT22;68291;49.602;8.722;2023-07-31T03:54:02;20.40;99.90
78904;DHT22;68291;49.602;8.722;2023-07-31T03:57:06;20.40;99.90
78904;DHT22;68291;49.602;8.722;2023-07-31T03:59:53;20.40;99.90
78904;DHT22;68291;49.602;8.722;2023-07-31T04:02:53;20.40;99.90
78904;DHT22;68291;49.602;8.722;2023-07-31T04:05:32;20.40;99.90
78904;DHT22;68291;49.602;8.722;2023-07-31T04:08:05;20.40;99.90
78904;DHT22;68291;49.602;8.722;2023-07-31T04:10:47;20.40;99.90
78904;DHT22;68291;49.602;8.722;2023-07-31T04:13:29;20.40;99.90
78904;DHT22;68291;49.602;8.722;2023-07-31T04:16:07;20.40;99.90
78904;DHT22;68291;49.602;8.722;2023-07-31T04:19:04;20.30;99.90
78904;DHT22;68291;49.602;8.722;2023-07-31T04:21:51;20.40;99.90
78904;DHT22;68291;49.602;8.722;2023-07-31T04:24:34;20.40;99.90
78904;DHT22;68291;49.602;8.722;2023-07-31T04:27:08;20.40;99.90
78904;DHT22;68291;49.602;8.722;2023-07-31T04:33:29;20.40;99.90
78904;DHT22;68291;49.602;8.722;2023-07-31T04:36:25;20.40;99.90
78904;DHT22;68291;49.602;8.722;2023-07-31T04:39:10;20.40;99.90
78904;DHT22;68291;49.602;8.722;2023-07-31T04:41:54;20.40;99.90
78904;DHT22;68291;49.602;8.722;2023-07-31T04:44:25;20.40;99.90
78904;DHT22;68291;49.602;8.722;2023-07-31T04:47:29;20.40;99.90
78904;DHT22;68291;49.602;8.722;2023-07-31T04:50:17;20.40;99.90
78904;DHT22;68291;49.602;8.722;2023-07-31T04:53:03;20.40;99.90
78904;DHT22;68291;49.602;8.722;2023-07-31T04:55:50;20.40;99.90
78904;DHT22;68291;49.602;8.722;2023-07-31T04:58:22;20.40;99.90
78904;DHT22;68291;49.602;8.722;2023-07-31T05:01:18;20.40;99.90
78904;DHT22;68291;49.602;8.722;2023-07-31T05:04:52;20.40;99.90
78904;DHT22;68291;49.602;8.722;2023-07-31T05:07:49;20.50;99.90
78904;DHT22;68291;49.602;8.722;2023-07-31T05:10:25;20.40;99.90
78904;DHT22;68291;49.602;8.722;2023-07-31T05:13:09;20.50;99.90
78904;DHT22;68291;49.602;8.722;2023-07-31T05:15:42;20.50;99.90
78904;DHT22;68291;49.602;8.722;2023-07-31T05:18:23;20.50;99.90
78904;DHT22;68291;49.602;8.722;2023-07-31T05:21:32;20.50;99.90
78904;DHT22;68291;49.602;8.722;2023-07-31T05:24:30;20.50;99.90
78904;DHT22;68291;49.602;8.722;2023-07-31T05:27:09;20.40;99.90
78904;DHT22;68291;49.602;8.722;2023-07-31T05:29:57;20.40;99.90
78904;DHT22;68291;49.602;8.722;2023-07-31T05:32:43;20.40;99.90
78904;DHT22;68291;49.602;8.722;2023-07-31T05:35:17;20.40;99.90
78904;DHT22;68291;49.602;8.722;2023-07-31T05:38:09;20.40;99.90
78904;DHT22;68291;49.602;8.722;2023-07-31T05:40:43;20.40;99.90
78904;DHT22;68291;49.602;8.722;2023-07-31T05:43:37;20.40;99.90
78904;DHT22;68291;49.602;8.722;2023-07-31T05:46:33;20.40;99.90
78904;DHT22;68291;49.602;8.722;2023-07-31T05:49:31;20.40;99.90
78904;DHT22;68291;49.602;8.722;2023-07-31T05:52:22;20.50;99.90
78904;DHT22;68291;49.602;8.722;2023-07-31T05:55:19;20.50;99.90
78904;DHT22;68291;49.602;8.722;2023-07-31T05:58:04;20.50;99.90
78904;DHT22;68291;49.602;8.722;2023-07-31T06:00:47;20.60;99.90
78904;DHT22;68291;49.602;8.722;2023-07-31T06:03:26;20.60;99.90
78904;DHT22;68291;49.602;8.722;2023-07-31T06:06:03;20.60;99.90
78904;DHT22;68291;49.602;8.722;2023-07-31T06:08:41;20.60;99.90
78904;DHT22;68291;49.602;8.722;2023-07-31T06:11:34;20.70;99.90
78904;DHT22;68291;49.602;8.722;2023-07-31T06:14:26;20.70;99.90
78904;DHT22;68291;49.602;8.722;2023-07-31T06:17:17;20.80;99.90
78904;DHT22;68291;49.602;8.722;2023-07-31T06:20:13;20.80;99.90
78904;DHT22;68291;49.602;8.722;2023-07-31T06:22:54;20.80;99.90
78904;DHT22;68291;49.602;8.722;2023-07-31T06:25:45;20.80;99.90
78904;DHT22;68291;49.602;8.722;2023-07-31T06:28:36;20.90;99.90
78904;DHT22;68291;49.602;8.722;2023-07-31T06:31:28;20.90;99.90
78904;DHT22;68291;49.602;8.722;2023-07-31T06:34:03;20.90;99.90
78904;DHT22;68291;49.602;8.722;2023-07-31T06:36:35;21.00;99.90
78904;DHT22;68291;49.602;8.722;2023-07-31T06:39:16;21.00;99.90
78904;DHT22;68291;49.602;8.722;2023-07-31T06:41:46;21.00;99.90
78904;DHT22;68291;49.602;8.722;2023-07-31T06:44:27;21.10;99.90
78904;DHT22;68291;49.602;8.722;2023-07-31T06:47:02;21.20;99.90
78904;DHT22;68291;49.602;8.722;2023-07-31T06:49:52;21.30;99.90
78904;DHT22;68291;49.602;8.722;2023-07-31T06:52:32;21.40;99.90
78904;DHT22;68291;49.602;8.722;2023-07-31T06:55:17;21.40;99.90
78904;DHT22;68291;49.602;8.722;2023-07-31T06:57:53;21.50;99.90
78904;DHT22;68291;49.602;8.722;2023-07-31T07:00:32;21.50;99.90
78904;DHT22;68291;49.602;8.722;2023-07-31T07:03:09;21.50;99.90
78904;DHT22;68291;49.602;8.722;2023-07-31T07:05:49;21.50;99.90
78904;DHT22;68291;49.602;8.722;2023-07-31T07:08:43;21.50;99.90
78904;DHT22;68291;49.602;8.722;2023-07-31T07:11:32;21.60;99.90
78904;DHT22;68291;49.602;8.722;2023-07-31T07:14:13;21.60;99.90
78904;DHT22;68291;49.602;8.722;2023-07-31T07:17:34;21.60;99.90
78904;DHT22;68291;49.602;8.722;2023-07-31T07:20:13;21.60;99.90
78904;DHT22;68291;49.602;8.722;2023-07-31T07:23:01;21.60;99.90
78904;DHT22;68291;49.602;8.722;2023-07-31T07:25:41;21.60;99.90
78904;DHT22;68291;49.602;8.722;2023-07-31T07:28:30;21.60;99.90
78904;DHT22;68291;49.602;8.722;2023-07-31T07:31:18;21.60;99.90
78904;DHT22;68291;49.602;8.722;2023-07-31T07:37:11;21.80;99.90
78904;DHT22;68291;49.602;8.722;2023-07-31T07:39:56;21.80;99.90
78904;DHT22;68291;49.602;8.722;2023-07-31T07:42:28;21.90;99.90
78904;DHT22;68291;49.602;8.722;2023-07-31T07:45:02;21.90;99.90
78904;DHT22;68291;49.602;8.722;2023-07-31T07:47:52;22.00;99.90
78904;DHT22;68291;49.602;8.722;2023-07-31T07:50:31;22.10;99.90
78904;DHT22;68291;49.602;8.722;2023-07-31T07:53:20;22.10;99.90
78904;DHT22;68291;49.602;8.722;2023-07-31T07:56:08;22.10;99.90
78904;DHT22;68291;49.602;8.722;2023-07-31T07:59:02;22.20;99.90
78904;DHT22;68291;49.602;8.722;2023-07-31T08:01:56;22.30;99.90
78904;DHT22;68291;49.602;8.722;2023-07-31T08:04:52;22.40;99.90
78904;DHT22;68291;49.602;8.722;2023-07-31T08:07:41;22.40;99.90
78904;DHT22;68291;49.602;8.722;2023-07-31T08:10:13;22.50;99.90
78904;DHT22;68291;49.602;8.722;2023-07-31T08:12:51;22.50;99.90
78904;DHT22;68291;49.602;8.722;2023-07-31T08:15:34;22.50;99.90
78904;DHT22;68291;49.602;8.722;2023-07-31T08:18:06;22.60;99.90
78904;DHT22;68291;49.602;8.722;2023-07-31T08:20:38;22.60;99.90
78904;DHT22;68291;49.602;8.722;2023-07-31T08:23:34;22.60;99.90
78904;DHT22;68291;49.602;8.722;2023-07-31T08:26:20;22.70;99.90
78904;DHT22;68291;49.602;8.722;2023-07-31T08:29:19;22.80;99.90
78904;DHT22;68291;49.602;8.722;2023-07-31T08:32:18;22.90;99.90
78904;DHT22;68291;49.602;8.722;2023-07-31T08:35:09;22.90;99.90
78904;DHT22;68291;49.602;8.722;2023-07-31T08:37:51;23.00;99.90
78904;DHT22;68291;49.602;8.722;2023-07-31T08:40:40;23.00;99.90
78904;DHT22;68291;49.602;8.722;2023-07-31T08:43:13;23.10;99.90
78904;DHT22;68291;49.602;8.722;2023-07-31T08:46:04;23.10;99.90
78904;DHT22;68291;49.602;8.722;2023-07-31T08:48:46;23.20;99.90
78904;DHT22;68291;49.602;8.722;2023-07-31T08:51:26;23.20;99.90
78904;DHT22;68291;49.602;8.722;2023-07-31T08:54:22;23.30;99.90
78904;DHT22;68291;49.602;8.722;2023-07-31T08:57:20;23.40;99.90
78904;DHT22;68291;49.602;8.722;2023-07-31T09:00:11;23.40;99.90
78904;DHT22;68291;49.602;8.722;2023-07-31T09:02:57;23.50;99.90
78904;DHT22;68291;49.602;8.722;2023-07-31T09:05:50;23.60;99.90
78904;DHT22;68291;49.602;8.722;2023-07-31T09:08:42;23.60;99.90
78904;DHT22;68291;49.602;8.722;2023-07-31T09:11:24;23.70;99.90
78904;DHT22;68291;49.602;8.722;2023-07-31T09:14:20;23.80;99.90
78904;DHT22;68291;49.602;8.722;2023-07-31T09:17:05;23.80;99.90
78904;DHT22;68291;49.602;8.722;2023-07-31T09:19:55;23.80;99.90
78904;DHT22;68291;49.602;8.722;2023-07-31T09:22:40;23.80;99.90
78904;DHT22;68291;49.602;8.722;2023-07-31T09:25:25;23.80;99.90
78904;DHT22;68291;49.602;8.722;2023-07-31T09:28:01;23.90;99.90
78904;DHT22;68291;49.602;8.722;2023-07-31T09:30:49;23.90;99.90
78904;DHT22;68291;49.602;8.722;2023-07-31T09:33:54;23.90;99.90
78904;DHT22;68291;49.602;8.722;2023-07-31T09:36:45;24.00;99.90
78904;DHT22;68291;49.602;8.722;2023-07-31T09:39:46;24.10;99.90
78904;DHT22;68291;49.602;8.722;2023-07-31T09:42:34;24.20;99.90
78904;DHT22;68291;49.602;8.722;2023-07-31T09:45:35;24.30;99.90
78904;DHT22;68291;49.602;8.722;2023-07-31T09:48:26;24.50;99.90
78904;DHT22;68291;49.602;8.722;2023-07-31T09:51:12;24.50;99.90
78904;DHT22;68291;49.602;8.722;2023-07-31T09:53:53;24.70;99.90
78904;DHT22;68291;49.602;8.722;2023-07-31T09:56:33;24.80;99.90
78904;DHT22;68291;49.602;8.722;2023-07-31T09:59:19;24.90;99.90
78904;DHT22;68291;49.602;8.722;2023-07-31T10:02:09;25.00;99.90
78904;DHT22;68291;49.602;8.722;2023-07-31T10:05:15;25.10;99.90
78904;DHT22;68291;49.602;8.722;2023-07-31T10:07:52;25.20;99.90
78904;DHT22;68291;49.602;8.722;2023-07-31T10:10:30;25.30;99.90
78904;DHT22;68291;49.602;8.722;2023-07-31T10:13:17;25.20;99.90
78904;DHT22;68291;49.602;8.722;2023-07-31T10:16:07;25.20;99.90
78904;DHT22;68291;49.602;8.722;2023-07-31T10:19:05;25.10;99.90
78904;DHT22;68291;49.602;8.722;2023-07-31T10:21:54;25.00;99.90
78904;DHT22;68291;49.602;8.722;2023-07-31T10:24:43;24.90;99.90
78904;DHT22;68291;49.602;8.722;2023-07-31T10:27:23;24.80;99.90
78904;DHT22;68291;49.602;8.722;2023-07-31T10:30:15;24.80;99.90
78904;DHT22;68291;49.602;8.722;2023-07-31T10:33:08;24.80;99.90
78904;DHT22;68291;49.602;8.722;2023-07-31T10:36:12;24.80;99.90
78904;DHT22;68291;49.602;8.722;2023-07-31T10:38:50;24.80;99.90
78904;DHT22;68291;49.602;8.722;2023-07-31T10:41:37;24.90;99.90
78904;DHT22;68291;49.602;8.722;2023-07-31T10:44:20;24.90;99.90
78904;DHT22;68291;49.602;8.722;2023-07-31T10:47:03;25.10;99.90
78904;DHT22;68291;49.602;8.722;2023-07-31T10:50:18;25.30;99.90
78904;DHT22;68291;49.602;8.722;2023-07-31T10:52:58;25.50;99.90
78904;DHT22;68291;49.602;8.722;2023-07-31T10:55:41;25.60;99.90
78904;DHT22;68291;49.602;8.722;2023-07-31T10:58:21;25.70;99.90
78904;DHT22;68291;49.602;8.722;2023-07-31T11:01:09;25.80;99.90
78904;DHT22;68291;49.602;8.722;2023-07-31T11:04:11;25.80;99.90
78904;DHT22;68291;49.602;8.722;2023-07-31T11:06:56;25.80;99.90
78904;DHT22;68291;49.602;8.722;2023-07-31T11:09:30;25.90;99.90
78904;DHT22;68291;49.602;8.722;2023-07-31T11:12:12;25.80;99.90
78904;DHT22;68291;49.602;8.722;2023-07-31T11:14:56;25.80;99.90
78904;DHT22;68291;49.602;8.722;2023-07-31T11:17:50;25.80;99.90
78904;DHT22;68291;49.602;8.722;2023-07-31T11:20:43;25.80;99.90
78904;DHT22;68291;49.602;8.722;2023-07-31T11:23:38;25.80;99.90
78904;DHT22;68291;49.602;8.722;2023-07-31T11:26:27;25.90;99.90
78904;DHT22;68291;49.602;8.722;2023-07-31T11:29:27;25.90;99.90
78904;DHT22;68291;49.602;8.722;2023-07-31T11:32:18;26.00;99.90
78904;DHT22;68291;49.602;8.722;2023-07-31T11:35:12;26.20;99.90
78904;DHT22;68291;49.602;8.722;2023-07-31T11:37:54;26.20;99.90
78904;DHT22;68291;49.602;8.722;2023-07-31T11:40:26;26.20;99.90
78904;DHT22;68291;49.602;8.722;2023-07-31T11:43:07;26.20;99.90
78904;DHT22;68291;49.602;8.722;2023-07-31T11:45:49;26.20;99.90
78904;DHT22;68291;49.602;8.722;2023-07-31T11:48:24;26.20;99.90
78904;DHT22;68291;49.602;8.722;2023-07-31T11:51:10;26.20;99.90
78904;DHT22;68291;49.602;8.722;2023-07-31T11:53:53;26.10;99.90
78904;DHT22;68291;49.602;8.722;2023-07-31T11:56:47;26.00;99.90
78904;DHT22;68291;49.602;8.722;2023-07-31T11:59:38;26.00;99.90
78904;DHT22;68291;49.602;8.722;2023-07-31T12:02:34;25.90;99.90
78904;DHT22;68291;49.602;8.722;2023-07-31T12:05:30;25.80;99.90
78904;DHT22;68291;49.602;8.722;2023-07-31T12:08:25;25.80;99.90
78904;DHT22;68291;49.602;8.722;2023-07-31T12:11:07;25.70;99.90
78904;DHT22;68291;49.602;8.722;2023-07-31T12:13:52;25.60;99.90
78904;DHT22;68291;49.602;8.722;2023-07-31T12:16:26;25.60;99.90
78904;DHT22;68291;49.602;8.722;2023-07-31T12:19:19;25.50;99.90
78904;DHT22;68291;49.602;8.722;2023-07-31T12:21:58;25.40;99.90
78904;DHT22;68291;49.602;8.722;2023-07-31T12:24:46;25.40;99.90
78904;DHT22;68291;49.602;8.722;2023-07-31T12:27:34;25.30;99.90
78904;DHT22;68291;49.602;8.722;2023-07-31T12:30:33;25.30;99.90
78904;DHT22;68291;49.602;8.722;2023-07-31T12:33:16;25.30;99.90
78904;DHT22;68291;49.602;8.722;2023-07-31T12:36:09;25.30;99.90
78904;DHT22;68291;49.602;8.722;2023-07-31T12:38:51;25.40;99.90
78904;DHT22;68291;49.602;8.722;2023-07-31T12:41:31;25.40;99.90
78904;DHT22;68291;49.602;8.722;2023-07-31T12:44:12;25.50;99.90
78904;DHT22;68291;49.602;8.722;2023-07-31T12:47:07;25.50;99.90
78904;DHT22;68291;49.602;8.722;2023-07-31T12:49:44;25.60;99.90
78904;DHT22;68291;49.602;8.722;2023-07-31T12:52:20;25.70;99.90
78904;DHT22;68291;49.602;8.722;2023-07-31T12:54:59;25.70;99.90
78904;DHT22;68291;49.602;8.722;2023-07-31T12:58:01;25.60;99.90
78904;DHT22;68291;49.602;8.722;2023-07-31T13:00:40;25.60;99.90
78904;DHT22;68291;49.602;8.722;2023-07-31T13:03:11;25.60;99.90
78904;DHT22;68291;49.602;8.722;2023-07-31T13:05:43;25.50;99.90
78904;DHT22;68291;49.602;8.722;2023-07-31T13:08:32;25.50;99.90
78904;DHT22;68291;49.602;8.722;2023-07-31T13:11:13;25.40;99.90
78904;DHT22;68291;49.602;8.722;2023-07-31T13:13:51;25.40;99.90
78904;DHT22;68291;49.602;8.722;2023-07-31T13:16:23;25.40;99.90
78904;DHT22;68291;49.602;8.722;2023-07-31T13:19:05;25.40;99.90
78904;DHT22;68291;49.602;8.722;2023-07-31T13:22:07;25.40;99.90
78904;DHT22;68291;49.602;8.722;2023-07-31T13:25:07;25.50;99.90
78904;DHT22;68291;49.602;8.722;2023-07-31T13:28:04;25.50;99.90
78904;DHT22;68291;49.602;8.722;2023-07-31T13:30:53;25.60;99.90
78904;DHT22;68291;49.602;8.722;2023-07-31T13:33:43;25.60;99.90
78904;DHT22;68291;49.602;8.722;2023-07-31T13:36:29;25.60;99.90
78904;DHT22;68291;49.602;8.722;2023-07-31T13:39:12;25.50;99.90
78904;DHT22;68291;49.602;8.722;2023-07-31T13:41:49;25.50;99.90
78904;DHT22;68291;49.602;8.722;2023-07-31T13:44:27;25.50;99.90
78904;DHT22;68291;49.602;8.722;2023-07-31T13:47:15;25.40;99.90
78904;DHT22;68291;49.602;8.722;2023-07-31T13:49:56;25.40;99.90
78904;DHT22;68291;49.602;8.722;2023-07-31T13:52:40;25.30;99.90
78904;DHT22;68291;49.602;8.722;2023-07-31T13:55:20;25.20;99.90
78904;DHT22;68291;49.602;8.722;2023-07-31T13:58:11;25.20;99.90
78904;DHT22;68291;49.602;8.722;2023-07-31T14:01:07;25.20;99.90
78904;DHT22;68291;49.602;8.722;2023-07-31T14:04:03;25.20;99.90
78904;DHT22;68291;49.602;8.722;2023-07-31T14:06:51;25.10;99.90
78904;DHT22;68291;49.602;8.722;2023-07-31T14:09:30;25.10;99.90
78904;DHT22;68291;49.602;8.722;2023-07-31T14:12:12;25.10;99.90
78904;DHT22;68291;49.602;8.722;2023-07-31T14:15:07;25.10;99.90
78904;DHT22;68291;49.602;8.722;2023-07-31T14:18:03;25.00;99.90
78904;DHT22;68291;49.602;8.722;2023-07-31T14:21:00;24.90;99.90
78904;DHT22;68291;49.602;8.722;2023-07-31T14:23:43;24.90;99.90
78904;DHT22;68291;49.602;8.722;2023-07-31T14:26:24;24.80;99.90
78904;DHT22;68291;49.602;8.722;2023-07-31T14:29:20;24.80;99.90
78904;DHT22;68291;49.602;8.722;2023-07-31T14:32:10;24.80;99.90
78904;DHT22;68291;49.602;8.722;2023-07-31T14:34:48;24.70;99.90
78904;DHT22;68291;49.602;8.722;2023-07-31T14:37:18;24.70;99.90
78904;DHT22;68291;49.602;8.722;2023-07-31T14:40:12;24.70;99.90
78904;DHT22;68291;49.602;8.722;2023-07-31T14:43:06;24.70;99.90
78904;DHT22;68291;49.602;8.722;2023-07-31T14:45:54;24.70;99.90
78904;DHT22;68291;49.602;8.722;2023-07-31T14:48:44;24.80;99.90
78904;DHT22;68291;49.602;8.722;2023-07-31T14:51:40;24.80;99.90
78904;DHT22;68291;49.602;8.722;2023-07-31T14:54:26;24.90;99.90
78904;DHT22;68291;49.602;8.722;2023-07-31T14:57:09;24.90;99.90
78904;DHT22;68291;49.602;8.722;2023-07-31T15:00:00;25.00;99.90
78904;DHT22;68291;49.602;8.722;2023-07-31T15:02:43;25.10;99.90
78904;DHT22;68291;49.602;8.722;2023-07-31T15:05:35;25.10;99.90
78904;DHT22;68291;49.602;8.722;2023-07-31T15:08:22;25.20;99.90
78904;DHT22;68291;49.602;8.722;2023-07-31T15:10:59;25.20;99.90
78904;DHT22;68291;49.602;8.722;2023-07-31T15:13:35;25.20;99.90
78904;DHT22;68291;49.602;8.722;2023-07-31T15:16:07;25.30;99.90
78904;DHT22;68291;49.602;8.722;2023-07-31T15:18:46;25.40;99.90
78904;DHT22;68291;49.602;8.722;2023-07-31T15:21:51;25.40;99.90
78904;DHT22;68291;49.602;8.722;2023-07-31T15:24:27;25.50;99.90
78904;DHT22;68291;49.602;8.722;2023-07-31T15:27:14;25.50;99.90
78904;DHT22;68291;49.602;8.722;2023-07-31T15:29:56;25.60;99.90
78904;DHT22;68291;49.602;8.722;2023-07-31T15:32:48;25.60;99.90
78904;DHT22;68291;49.602;8.722;2023-07-31T15:35:39;25.60;99.90
78904;DHT22;68291;49.602;8.722;2023-07-31T15:38:36;25.60;99.90
78904;DHT22;68291;49.602;8.722;2023-07-31T15:41:08;25.60;99.90
78904;DHT22;68291;49.602;8.722;2023-07-31T15:44:13;25.60;99.90
78904;DHT22;68291;49.602;8.722;2023-07-31T15:46:59;25.70;99.90
78904;DHT22;68291;49.602;8.722;2023-07-31T15:49:39;25.70;99.90
78904;DHT22;68291;49.602;8.722;2023-07-31T15:52:30;25.70;99.90
78904;DHT22;68291;49.602;8.722;2023-07-31T15:55:09;25.60;99.90
78904;DHT22;68291;49.602;8.722;2023-07-31T15:57:55;25.60;99.90
78904;DHT22;68291;49.602;8.722;2023-07-31T16:00:35;25.50;99.90
78904;DHT22;68291;49.602;8.722;2023-07-31T16:03:15;25.50;99.90
78904;DHT22;68291;49.602;8.722;2023-07-31T16:06:06;25.50;99.90
78904;DHT22;68291;49.602;8.722;2023-07-31T16:09:01;25.50;99.90
78904;DHT22;68291;49.602;8.722;2023-07-31T16:12:08;25.50;99.90
78904;DHT22;68291;49.602;8.722;2023-07-31T16:14:50;25.50;99.90
78904;DHT22;68291;49.602;8.722;2023-07-31T16:17:29;25.50;99.90
78904;DHT22;68291;49.602;8.722;2023-07-31T16:20:12;25.50;99.90
78904;DHT22;68291;49.602;8.722;2023-07-31T16:22:57;25.40;99.90
78904;DHT22;68291;49.602;8.722;2023-07-31T16:25:44;25.40;99.90
78904;DHT22;68291;49.602;8.722;2023-07-31T16:28:36;25.30;99.90
78904;DHT22;68291;49.602;8.722;2023-07-31T16:31:19;25.20;99.90
78904;DHT22;68291;49.602;8.722;2023-07-31T16:34:04;25.20;99.90
78904;DHT22;68291;49.602;8.722;2023-07-31T16:36:42;25.10;99.90
78904;DHT22;68291;49.602;8.722;2023-07-31T16:39:36;25.10;99.90
78904;DHT22;68291;49.602;8.722;2023-07-31T16:42:22;25.00;99.90
78904;DHT22;68291;49.602;8.722;2023-07-31T16:45:30;24.90;99.90
78904;DHT22;68291;49.602;8.722;2023-07-31T16:48:12;24.80;99.90
78904;DHT22;68291;49.602;8.722;2023-07-31T16:50:50;24.80;99.90
78904;DHT22;68291;49.602;8.722;2023-07-31T16:53:30;24.70;99.90
78904;DHT22;68291;49.602;8.722;2023-07-31T16:56:08;24.60;99.90
78904;DHT22;68291;49.602;8.722;2023-07-31T16:58:55;24.50;99.90
78904;DHT22;68291;49.602;8.722;2023-07-31T17:01:52;24.40;99.90
78904;DHT22;68291;49.602;8.722;2023-07-31T17:04:38;24.40;99.90
78904;DHT22;68291;49.602;8.722;2023-07-31T17:07:15;24.30;99.90
78904;DHT22;68291;49.602;8.722;2023-07-31T17:09:50;24.20;99.90
78904;DHT22;68291;49.602;8.722;2023-07-31T17:12:36;24.00;99.90
78904;DHT22;68291;49.602;8.722;2023-07-31T17:15:08;23.90;99.90
78904;DHT22;68291;49.602;8.722;2023-07-31T17:18:02;23.80;99.90
78904;DHT22;68291;49.602;8.722;2023-07-31T17:20:34;23.60;99.90
78904;DHT22;68291;49.602;8.722;2023-07-31T17:23:17;23.40;99.90
78904;DHT22;68291;49.602;8.722;2023-07-31T17:25:54;23.20;99.90
78904;DHT22;68291;49.602;8.722;2023-07-31T17:28:39;23.10;99.90
78904;DHT22;68291;49.602;8.722;2023-07-31T17:31:21;22.90;99.90
78904;DHT22;68291;49.602;8.722;2023-07-31T17:34:21;22.70;99.90
78904;DHT22;68291;49.602;8.722;2023-07-31T17:36:57;22.50;99.90
78904;DHT22;68291;49.602;8.722;2023-07-31T17:39:48;22.40;99.90